Time;durP1;ratioP1;P1;durP2;ratioP2;P2;SDS_P1;SDS_P2;PMS_P1;PMS_P2;Temp;Humidity;BMP_temperature;BMP_pressure;BME280_temperature;BME280_humidity;BME280_pressure;Samples;Min_cycle;Max_cycle;Signal;HPM_P1;HPM_P2
2022/04/09 00:01:20;;;;;;;8.80;3.80;;;;;10.80;96109.60;;;;110980;1249;41263;-70
2022/04/09 00:03:51;;;;;;;10.10;3.80;;;;;10.86;96109.20;;;;110820;1252;41149;-70
2022/04/09 00:06:21;;;;;;;9.30;4.00;;;;;10.90;96107.00;;;;110690;1250;41175;-70
2022/04/09 00:08:50;;;;;;;10.10;3.90;;;;;10.90;96103.60;;;;110808;1249;41726;-70
2022/04/09 00:11:20;;;;;;;10.10;4.20;;;;;10.90;96108.60;;;;110679;1251;41471;-70
2022/04/09 00:13:50;;;;;;;9.40;4.10;;;;;10.90;96105.40;;;;110957;1250;41266;-70
2022/04/09 00:16:23;;;;;;;8.70;3.50;;;;;11.00;96103.00;;;;110955;1250;41672;-71
2022/04/09 00:18:53;;;;;;;9.20;3.80;;;;;11.00;96088.20;;;;110950;1249;41151;-71
2022/04/09 00:21:23;;;;;;;10.10;3.70;;;;;11.08;96086.40;;;;110892;1249;41173;-71
2022/04/09 00:23:53;;;;;;;9.00;3.90;;;;;11.10;96087.80;;;;110957;1249;41641;-71
2022/04/09 00:26:23;;;;;;;9.00;3.70;;;;;11.10;96083.20;;;;110761;1252;41146;-70
2022/04/09 00:28:53;;;;;;;8.20;3.40;;;;;11.10;96077.00;;;;110932;1251;41167;-71
2022/04/09 00:31:22;;;;;;;7.30;3.20;;;;;11.18;96079.40;;;;110719;1251;41182;-71
2022/04/09 00:33:52;;;;;;;7.30;3.30;;;;;11.20;96084.80;;;;110650;1253;41166;-71
2022/04/09 00:36:22;;;;;;;10.00;4.10;;;;;11.20;96081.20;;;;110849;1251;41488;-71
2022/04/09 00:38:52;;;;;;;8.90;3.90;;;;;11.20;96078.40;;;;110758;1251;42375;-71
2022/04/09 00:41:23;;;;;;;8.70;3.60;;;;;11.22;96079.40;;;;110833;1251;42668;-71
2022/04/09 00:43:54;;;;;;;8.60;3.60;;;;;11.26;96078.40;;;;110665;1252;41788;-70
2022/04/09 00:46:24;;;;;;;7.90;3.30;;;;;11.30;96079.60;;;;110725;1251;41225;-71
2022/04/09 00:48:54;;;;;;;8.60;3.90;;;;;11.30;96076.40;;;;110594;1253;41313;-71
2022/04/09 00:51:23;;;;;;;7.20;3.10;;;;;11.34;96079.20;;;;110633;1251;42096;-71
2022/04/09 00:53:53;;;;;;;7.80;3.50;;;;;11.40;96080.60;;;;110710;1251;41153;-71
2022/04/09 00:56:23;;;;;;;9.00;3.70;;;;;11.40;96082.80;;;;110661;1252;41255;-71
2022/04/09 00:58:55;;;;;;;9.70;4.30;;;;;11.40;96082.40;;;;110760;1251;41160;-70
2022/04/09 01:01:29;;;;;;;8.60;3.60;;;;;11.40;96078.20;;;;110839;1249;41173;-71
2022/04/09 01:04:00;;;;;;;7.60;3.20;;;;;11.40;96086.40;;;;110807;1249;41256;-72
2022/04/09 01:06:32;;;;;;;8.30;3.50;;;;;11.40;96088.40;;;;110703;1252;41847;-70
2022/04/09 01:09:04;;;;;;;9.00;3.70;;;;;11.40;96084.00;;;;110730;1251;41143;-70
2022/04/09 01:11:34;;;;;;;7.60;3.30;;;;;11.40;96082.40;;;;110717;1252;41151;-71
2022/04/09 01:14:04;;;;;;;8.20;3.70;;;;;11.46;96072.80;;;;110801;1251;41622;-70
2022/04/09 01:16:35;;;;;;;8.30;3.60;;;;;11.50;96071.60;;;;110791;1251;41133;-70
2022/04/09 01:19:06;;;;;;;7.50;3.50;;;;;11.50;96074.20;;;;110738;1252;41372;-70
2022/04/09 01:21:40;;;;;;;8.90;3.60;;;;;11.50;96066.80;;;;110693;1251;41899;-70
2022/04/09 01:24:09;;;;;;;9.70;4.40;;;;;11.50;96061.40;;;;110626;1252;41162;-71
2022/04/09 01:26:47;;;;;;;10.30;4.30;;;;;11.40;96051.20;;;;110694;1252;41508;-71
2022/04/09 01:29:30;;;;;;;8.90;4.10;;;;;11.40;96045.60;;;;110756;1251;41487;-71
2022/04/09 01:32:00;;;;;;;9.20;4.10;;;;;11.38;96049.20;;;;110853;1252;41154;-71
2022/04/09 01:34:30;;;;;;;9.50;3.90;;;;;11.30;96049.60;;;;110731;1252;41150;-71
2022/04/09 01:37:01;;;;;;;8.70;4.00;;;;;11.28;96046.80;;;;110793;1250;42446;-71
2022/04/09 01:39:32;;;;;;;8.60;3.80;;;;;11.20;96040.80;;;;110689;1252;41554;-71
2022/04/09 01:42:03;;;;;;;8.30;3.80;;;;;11.14;96032.60;;;;110776;1250;41384;-70
2022/04/09 01:44:33;;;;;;;10.50;4.00;;;;;11.10;96034.60;;;;110692;1252;41908;-71
2022/04/09 01:47:04;;;;;;;9.10;3.90;;;;;11.06;96029.20;;;;110730;1251;41264;-71
2022/04/09 01:49:34;;;;;;;8.90;4.10;;;;;11.00;96025.20;;;;110686;1253;42065;-71
2022/04/09 01:52:04;;;;;;;10.70;4.30;;;;;10.96;96019.00;;;;110694;1253;41684;-71
2022/04/09 01:54:35;;;;;;;;;;;;;10.90;96018.40;;;;110589;1253;42412;-71
2022/04/09 01:57:08;;;;;;;9.90;4.30;;;;;10.80;96020.40;;;;110656;1252;41163;-71
2022/04/09 01:59:41;;;;;;;9.00;3.80;;;;;10.80;96019.20;;;;110679;1252;41747;-71
2022/04/09 02:02:12;;;;;;;8.60;3.80;;;;;10.80;96013.60;;;;110668;1251;41163;-71
2022/04/09 02:04:41;;;;;;;7.90;3.20;;;;;10.72;96017.40;;;;110640;1252;41156;-71
2022/04/09 02:07:12;;;;;;;8.90;3.80;;;;;10.78;96014.20;;;;110683;1252;41160;-72
2022/04/09 02:09:41;;;;;;;9.10;3.30;;;;;10.78;96007.00;;;;110678;1251;41172;-69
2022/04/09 02:12:11;;;;;;;10.20;3.70;;;;;10.80;96001.20;;;;110797;1251;41207;-71
2022/04/09 02:14:42;;;;;;;8.40;3.80;;;;;10.80;96005.20;;;;110832;1250;41172;-71
2022/04/09 02:17:13;;;;;;;8.30;3.60;;;;;10.80;95996.80;;;;110697;1252;41255;-71
2022/04/09 02:19:43;;;;;;;9.10;3.60;;;;;10.80;95997.40;;;;110795;1250;41167;-71
2022/04/09 02:22:13;;;;;;;8.40;3.70;;;;;10.82;96000.40;;;;110536;1253;41176;-71
2022/04/09 02:24:43;;;;;;;8.50;3.70;;;;;10.86;95998.20;;;;110633;1252;41282;-71
2022/04/09 02:27:15;;;;;;;8.70;3.90;;;;;10.88;95997.60;;;;110477;1251;41280;-71
2022/04/09 02:29:46;;;;;;;8.20;3.70;;;;;10.90;95995.00;;;;110715;1252;41187;-71
2022/04/09 02:32:16;;;;;;;8.80;3.60;;;;;10.84;95998.80;;;;110885;1249;41165;-71
2022/04/09 02:34:49;;;;;;;8.50;3.50;;;;;10.90;96006.00;;;;110963;1249;41973;-70
2022/04/09 02:37:20;;;;;;;8.10;3.40;;;;;10.90;96004.20;;;;110780;1249;40734;-71
2022/04/09 02:39:49;;;;;;;7.30;3.40;;;;;10.80;95999.40;;;;110793;1251;41501;-70
2022/04/09 02:42:19;;;;;;;7.70;3.40;;;;;10.80;95999.40;;;;110784;1250;41597;-71
2022/04/09 02:44:49;;;;;;;8.40;3.70;;;;;10.80;95999.00;;;;110905;1249;41690;-71
2022/04/09 02:47:21;;;;;;;10.60;3.60;;;;;10.80;95998.20;;;;110964;1249;41347;-71
2022/04/09 02:49:51;;;;;;;7.70;3.60;;;;;10.80;95993.20;;;;110960;1249;41267;-71
2022/04/09 02:52:22;;;;;;;8.00;3.30;;;;;10.82;95986.40;;;;110969;1249;41157;-71
2022/04/09 02:54:53;;;;;;;7.20;3.50;;;;;10.82;95984.40;;;;110731;1252;41162;-71
2022/04/09 02:57:24;;;;;;;8.70;3.80;;;;;10.80;95987.40;;;;111011;1250;41155;-72
2022/04/09 02:59:54;;;;;;;10.30;4.50;;;;;10.82;95983.20;;;;110772;1252;41228;-71
2022/04/09 03:02:25;;;;;;;;;;;;;10.82;95987.80;;;;110722;1251;41266;-70
2022/04/09 03:04:56;;;;;;;9.60;4.20;;;;;10.80;95984.20;;;;110917;1251;41540;-71
2022/04/09 03:07:26;;;;;;;;;;;;;10.80;95977.20;;;;110940;1249;40824;-71
2022/04/09 03:09:56;;;;;;;10.40;5.30;;;;;10.80;95970.60;;;;110949;1249;41152;-70
2022/04/09 03:12:26;;;;;;;10.40;4.70;;;;;10.74;95965.60;;;;110777;1251;41263;-71
2022/04/09 03:14:55;;;;;;;9.40;4.20;;;;;10.70;95973.40;;;;110698;1252;41270;-71
2022/04/09 03:17:24;;;;;;;11.00;5.10;;;;;10.70;95964.20;;;;110665;1252;41167;-70
2022/04/09 03:19:54;;;;;;;9.70;4.90;;;;;10.70;95954.60;;;;110931;1249;42229;-71
2022/04/09 03:22:27;;;;;;;9.10;4.20;;;;;10.70;95953.80;;;;110706;1251;41649;-71
2022/04/09 03:24:59;;;;;;;8.90;4.30;;;;;10.60;95960.40;;;;110767;1250;41152;-71
2022/04/09 03:27:30;;;;;;;8.80;3.90;;;;;10.60;95964.20;;;;110691;1251;41209;-71
2022/04/09 03:30:01;;;;;;;10.40;3.90;;;;;10.60;95956.20;;;;110779;1251;41605;-71
2022/04/09 03:32:31;;;;;;;;;;;;;10.60;95959.00;;;;110555;1252;41160;-71
2022/04/09 03:35:01;;;;;;;7.90;3.60;;;;;10.50;95954.00;;;;110717;1252;41143;-70
2022/04/09 03:37:33;;;;;;;8.40;3.60;;;;;10.50;95955.60;;;;110836;1249;41402;-71
2022/04/09 03:40:05;;;;;;;9.30;3.80;;;;;10.50;95961.80;;;;110893;1249;41152;-70
2022/04/09 03:42:34;;;;;;;8.60;4.10;;;;;10.50;95963.20;;;;110705;1251;41143;-70
2022/04/09 03:45:04;;;;;;;12.80;4.10;;;;;10.50;95966.00;;;;110862;1249;41435;-71
2022/04/09 03:47:35;;;;;;;8.90;3.80;;;;;10.50;95956.60;;;;110839;1251;42352;-71
2022/04/09 03:50:07;;;;;;;9.20;4.00;;;;;10.50;95956.80;;;;110913;1249;41133;-70
2022/04/09 03:52:40;;;;;;;8.60;3.70;;;;;10.48;95961.20;;;;110729;1252;41882;-70
2022/04/09 03:55:10;;;;;;;8.20;3.70;;;;;10.40;95963.00;;;;110853;1249;41216;-70
2022/04/09 03:57:41;;;;;;;8.60;3.70;;;;;10.40;95960.80;;;;110843;1249;41530;-70
2022/04/09 04:00:13;;;;;;;9.30;3.70;;;;;10.40;95958.00;;;;110768;1251;42372;-70
2022/04/09 04:02:45;;;;;;;9.00;4.50;;;;;10.40;95960.60;;;;110850;1251;41545;-70
2022/04/09 04:05:18;;;;;;;9.80;4.10;;;;;10.38;95968.00;;;;110682;1251;41439;-70
2022/04/09 04:07:47;;;;;;;8.50;4.00;;;;;10.30;95977.00;;;;110748;1252;41149;-69
2022/04/09 04:10:18;;;;;;;9.20;3.90;;;;;10.30;95978.80;;;;110839;1251;41633;-69
2022/04/09 04:12:52;;;;;;;8.50;3.90;;;;;10.26;95977.80;;;;110714;1251;41292;-70
2022/04/09 04:15:27;;;;;;;8.30;3.40;;;;;10.20;95984.00;;;;110810;1251;41623;-70
2022/04/09 04:17:57;;;;;;;7.50;3.50;;;;;10.20;95983.00;;;;110817;1251;41537;-70
2022/04/09 04:20:28;;;;;;;8.70;3.80;;;;;10.10;95984.20;;;;110773;1250;41273;-70
2022/04/09 04:22:58;;;;;;;8.70;3.70;;;;;10.10;95990.00;;;;110792;1252;41152;-71
2022/04/09 04:25:28;;;;;;;8.70;3.90;;;;;10.10;95987.00;;;;110735;1252;41947;-71
2022/04/09 04:27:58;;;;;;;10.80;4.30;;;;;10.10;95988.00;;;;110769;1251;41932;-71
2022/04/09 04:30:27;;;;;;;7.80;3.50;;;;;10.10;95990.60;;;;110611;1252;41546;-70
2022/04/09 04:32:57;;;;;;;8.60;4.00;;;;;10.10;95989.60;;;;110716;1252;41133;-70
2022/04/09 04:35:34;;;;;;;8.20;3.70;;;;;10.14;95986.40;;;;110712;1252;42605;-70
2022/04/09 04:38:04;;;;;;;7.80;3.50;;;;;10.20;95990.60;;;;110774;1251;41152;-70
2022/04/09 04:40:34;;;;;;;;;;;;;10.26;95990.40;;;;110705;1252;41290;-71
2022/04/09 04:43:06;;;;;;;8.20;3.50;;;;;10.30;95989.40;;;;110788;1251;41145;-71
2022/04/09 04:45:35;;;;;;;8.90;4.20;;;;;10.40;95988.00;;;;110650;1252;41156;-70
2022/04/09 04:48:07;;;;;;;11.80;5.30;;;;;10.50;95984.80;;;;110811;1251;41264;-71
2022/04/09 04:50:37;;;;;;;9.10;4.40;;;;;10.60;95989.60;;;;110840;1250;41722;-71
2022/04/09 04:53:08;;;;;;;11.00;5.20;;;;;10.60;95993.60;;;;110817;1251;41168;-69
2022/04/09 04:55:42;;;;;;;10.00;4.70;;;;;10.70;95993.80;;;;110715;1250;41175;-68
2022/04/09 04:58:11;;;;;;;10.20;5.30;;;;;10.80;95993.60;;;;110843;1251;41172;-70
2022/04/09 05:00:45;;;;;;;12.00;5.80;;;;;10.90;95994.60;;;;110856;1251;42187;-72
2022/04/09 05:03:19;;;;;;;14.30;6.40;;;;;10.92;95996.80;;;;110761;1252;41153;-71
2022/04/09 05:05:55;;;;;;;11.10;5.60;;;;;11.00;96002.20;;;;110644;1253;41964;-71
2022/04/09 05:08:25;;;;;;;13.50;6.10;;;;;11.10;96006.40;;;;110593;1253;41208;-71
2022/04/09 05:10:55;;;;;;;12.00;5.60;;;;;11.10;96004.40;;;;110801;1251;41610;-71
2022/04/09 05:13:27;;;;;;;8.40;4.20;;;;;11.20;96000.00;;;;110682;1253;42147;-71
2022/04/09 05:15:57;;;;;;;10.60;4.70;;;;;11.30;95996.40;;;;110706;1253;41143;-70
2022/04/09 05:18:28;;;;;;;10.80;4.50;;;;;11.34;95992.20;;;;110649;1253;42082;-70
2022/04/09 05:20:57;;;;;;;9.00;4.10;;;;;11.40;95996.80;;;;110724;1251;42375;-70
2022/04/09 05:23:27;;;;;;;8.70;4.10;;;;;11.50;96003.00;;;;110689;1252;41257;-70
2022/04/09 05:25:57;;;;;;;9.70;4.10;;;;;11.58;95999.40;;;;110581;1253;41148;-70
2022/04/09 05:28:26;;;;;;;12.50;5.70;;;;;11.62;96005.40;;;;110659;1253;41153;-70
2022/04/09 05:30:56;;;;;;;13.90;6.60;;;;;11.70;95994.80;;;;110775;1252;41266;-70
2022/04/09 05:33:25;;;;;;;19.80;8.50;;;;;11.70;96000.40;;;;110853;1251;41147;-71
2022/04/09 05:36:02;;;;;;;17.90;8.60;;;;;11.80;95997.40;;;;110931;1250;41138;-70
2022/04/09 05:38:32;;;;;;;18.80;8.70;;;;;11.90;95994.00;;;;110971;1250;41589;-70
2022/04/09 05:41:02;;;;;;;16.40;8.00;;;;;12.08;95978.80;;;;110587;1253;41623;-70
2022/04/09 05:43:32;;;;;;;14.10;6.20;;;;;12.20;95971.40;;;;110672;1252;42195;-70
2022/04/09 05:46:01;;;;;;;11.40;5.30;;;;;12.40;95977.40;;;;110686;1251;41185;-70
2022/04/09 05:48:35;;;;;;;12.40;5.00;;;;;12.60;95973.60;;;;110666;1253;41149;-70
2022/04/09 05:51:05;;;;;;;10.10;5.00;;;;;12.76;95975.40;;;;110663;1253;41374;-70
2022/04/09 05:53:37;;;;;;;11.40;4.50;;;;;12.90;95966.00;;;;110803;1250;42056;-70
2022/04/09 05:56:07;;;;;;;9.70;4.60;;;;;13.04;95962.60;;;;110669;1253;42259;-71
2022/04/09 05:58:41;;;;;;;9.70;4.20;;;;;13.20;95970.40;;;;110805;1252;41165;-71
2022/04/09 06:01:24;;;;;;;9.20;4.20;;;;;13.30;95968.00;;;;110821;1252;41428;-71
2022/04/09 06:03:55;;;;;;;11.00;4.80;;;;;13.48;95968.80;;;;110681;1250;41256;-71
2022/04/09 06:06:25;;;;;;;9.90;4.60;;;;;13.60;95975.80;;;;110685;1253;42481;-71
2022/04/09 06:08:58;;;;;;;8.80;4.30;;;;;13.70;95972.40;;;;110713;1252;42544;-72
2022/04/09 06:11:43;;;;;;;9.90;4.70;;;;;13.80;95966.40;;;;110711;1252;41260;-70
2022/04/09 06:14:17;;;;;;;9.70;5.00;;;;;13.96;95959.20;;;;110842;1252;41144;-70
2022/04/09 06:16:48;;;;;;;10.20;5.20;;;;;14.10;95957.60;;;;110704;1252;41594;-70
2022/04/09 06:19:17;;;;;;;10.40;4.90;;;;;14.20;95957.60;;;;110702;1249;41166;-71
2022/04/09 06:21:48;;;;;;;13.20;5.70;;;;;14.40;95962.20;;;;110716;1251;41143;-71
2022/04/09 06:24:19;;;;;;;11.50;5.30;;;;;14.50;95966.40;;;;110906;1249;41146;-70
2022/04/09 06:26:49;;;;;;;10.80;5.30;;;;;14.60;95956.40;;;;110593;1251;320580;-70
2022/04/09 06:29:19;;;;;;;10.50;4.90;;;;;14.70;95963.20;;;;110635;1252;41271;-70
2022/04/09 06:31:51;;;;;;;9.00;4.30;;;;;14.80;95960.60;;;;110933;1250;41607;-71
2022/04/09 06:34:21;;;;;;;10.60;4.10;;;;;14.90;95970.60;;;;110987;1249;41169;-71
2022/04/09 06:36:50;;;;;;;9.60;4.40;;;;;15.00;95976.00;;;;110936;1250;42186;-71
2022/04/09 06:39:20;;;;;;;10.20;4.60;;;;;14.96;95984.60;;;;110707;1251;41981;-71
2022/04/09 06:41:50;;;;;;;10.50;4.20;;;;;14.90;95988.60;;;;110843;1251;41378;-71
2022/04/09 06:44:26;;;;;;;9.70;4.00;;;;;14.90;95982.60;;;;110680;1252;41158;-71
2022/04/09 06:47:00;;;;;;;11.20;4.20;;;;;14.80;95983.80;;;;110690;1252;42050;-71
2022/04/09 06:49:37;;;;;;;12.20;4.00;;;;;14.80;95984.60;;;;110667;1252;41605;-70
2022/04/09 06:52:16;;;;;;;10.20;3.90;;;;;14.80;95981.40;;;;110704;1252;41266;-70
2022/04/09 06:54:57;;;;;;;11.70;4.00;;;;;14.82;95983.00;;;;110713;1252;41276;-71
2022/04/09 06:57:28;;;;;;;11.00;4.20;;;;;14.90;95979.40;;;;110773;1250;41214;-71
2022/04/09 07:00:05;;;;;;;10.00;4.00;;;;;14.90;95967.60;;;;110694;1252;41166;-70
2022/04/09 07:02:35;;;;;;;9.00;3.70;;;;;15.00;95966.60;;;;110734;1250;40783;-71
2022/04/09 07:05:05;;;;;;;8.90;3.80;;;;;15.10;95968.80;;;;110727;1252;41314;-71
2022/04/09 07:07:35;;;;;;;9.20;3.60;;;;;15.20;95977.80;;;;110679;1252;41178;-71
2022/04/09 07:10:07;;;;;;;10.30;3.30;;;;;15.20;95977.40;;;;110816;1251;41174;-71
2022/04/09 07:12:37;;;;;;;9.00;3.30;;;;;15.30;95974.60;;;;110705;1252;42471;-71
2022/04/09 07:15:06;;;;;;;7.60;3.40;;;;;15.30;95970.40;;;;110850;1249;41158;-71
2022/04/09 07:17:36;;;;;;;15.40;3.30;;;;;15.40;95968.40;;;;110664;1249;41154;-71
2022/04/09 07:20:07;;;;;;;8.50;3.10;;;;;15.50;95963.00;;;;110956;1249;41904;-71
2022/04/09 07:22:37;;;;;;;7.40;3.10;;;;;15.68;95970.00;;;;110836;1251;42961;-71
2022/04/09 07:25:07;;;;;;;12.30;3.10;;;;;15.74;95971.80;;;;110933;1249;41130;-71
2022/04/09 07:27:41;;;;;;;10.20;3.40;;;;;15.90;95969.80;;;;110726;1252;41150;-71
2022/04/09 07:30:13;;;;;;;9.80;3.60;;;;;16.00;95966.40;;;;110666;1252;42099;-71
2022/04/09 07:32:43;;;;;;;7.80;3.50;;;;;16.08;95974.20;;;;110866;1251;41285;-71
2022/04/09 07:35:12;;;;;;;9.90;3.80;;;;;16.10;95966.20;;;;110713;1252;41144;-71
2022/04/09 07:37:43;;;;;;;10.00;3.10;;;;;16.18;95960.60;;;;110885;1251;41348;-71
2022/04/09 07:40:14;;;;;;;7.60;3.30;;;;;16.26;95957.20;;;;110839;1250;42574;-72
2022/04/09 07:42:44;;;;;;;10.10;2.90;;;;;16.30;95941.80;;;;110712;1252;41143;-71
2022/04/09 07:45:15;;;;;;;8.80;2.80;;;;;16.50;95945.60;;;;110570;1253;41283;-71
2022/04/09 07:47:45;;;;;;;7.90;3.00;;;;;16.72;95955.40;;;;110708;1252;41952;-71
2022/04/09 07:50:13;;;;;;;11.20;2.50;;;;;16.80;95952.20;;;;110581;1252;41609;-72
2022/04/09 07:52:42;;;;;;;8.10;2.90;;;;;16.92;95946.60;;;;110411;1254;41851;-71
2022/04/09 07:55:16;;;;;;;6.90;2.60;;;;;17.02;95942.80;;;;110834;1250;41267;-71
2022/04/09 07:57:47;;;;;;;7.00;2.60;;;;;17.30;95939.40;;;;110876;1250;41639;-71
2022/04/09 08:00:16;;;;;;;;;;;;;17.58;95944.80;;;;110827;1251;41704;-72
2022/04/09 08:02:45;;;;;;;6.30;2.40;;;;;17.80;95945.60;;;;110929;1249;41549;-71
2022/04/09 08:05:18;;;;;;;8.80;2.30;;;;;17.90;95948.20;;;;110713;1252;41621;-72
2022/04/09 08:07:49;;;;;;;7.90;2.60;;;;;17.90;95937.00;;;;110713;1251;41152;-71
2022/04/09 08:10:18;;;;;;;9.00;2.30;;;;;18.08;95941.20;;;;110877;1251;42398;-72
2022/04/09 08:12:49;;;;;;;8.80;2.20;;;;;18.00;95939.00;;;;110698;1252;41165;-72
2022/04/09 08:15:18;;;;;;;;;;;;;17.80;95949.80;;;;110714;1251;41140;-71
2022/04/09 08:17:49;;;;;;;5.80;2.00;;;;;17.70;95952.00;;;;110796;1249;41184;-70
2022/04/09 08:20:19;;;;;;;9.10;2.30;;;;;17.54;95947.20;;;;110691;1252;41264;-72
2022/04/09 08:22:49;;;;;;;6.20;2.10;;;;;17.60;95948.40;;;;110909;1252;41333;-71
2022/04/09 08:25:18;;;;;;;6.50;2.30;;;;;17.80;95953.00;;;;110793;1252;41319;-71
2022/04/09 08:27:51;;;;;;;5.50;2.00;;;;;17.90;95952.00;;;;110732;1253;41370;-71
2022/04/09 08:30:22;;;;;;;6.70;2.10;;;;;17.90;95950.80;;;;110509;1254;41160;-71
2022/04/09 08:32:52;;;;;;;6.50;2.20;;;;;17.90;95941.20;;;;110711;1252;41267;-71
2022/04/09 08:35:21;;;;;;;7.30;2.20;;;;;18.06;95937.00;;;;110720;1252;41714;-70
2022/04/09 08:37:54;;;;;;;6.10;2.40;;;;;18.14;95940.40;;;;110859;1250;41391;-71
2022/04/09 08:40:24;;;;;;;8.60;2.60;;;;;18.38;95940.80;;;;110710;1252;41910;-71
2022/04/09 08:42:54;;;;;;;7.90;2.50;;;;;18.58;95937.60;;;;110821;1251;41148;-72
2022/04/09 08:45:23;;;;;;;8.40;2.60;;;;;18.66;95935.80;;;;110589;1252;41437;-71
2022/04/09 08:47:52;;;;;;;5.50;2.20;;;;;18.68;95939.00;;;;110635;1253;41261;-70
2022/04/09 08:50:22;;;;;;;9.30;2.30;;;;;18.60;95925.40;;;;110660;1250;41152;-71
2022/04/09 08:52:51;;;;;;;7.00;2.50;;;;;18.70;95920.00;;;;110676;1252;41277;-71
2022/04/09 08:55:20;;;;;;;5.60;2.30;;;;;18.70;95922.80;;;;110703;1252;41303;-71
2022/04/09 08:57:49;;;;;;;6.10;2.50;;;;;18.94;95930.40;;;;110687;1252;41985;-71
2022/04/09 09:00:19;;;;;;;9.50;2.60;;;;;19.10;95936.40;;;;110844;1251;41594;-71
2022/04/09 09:02:55;;;;;;;7.20;2.70;;;;;18.90;95932.00;;;;110705;1251;41261;-69
2022/04/09 09:05:54;;;;;;;7.70;2.50;;;;;18.68;95934.00;;;;110548;1251;41205;-72
2022/04/09 09:08:41;;;;;;;7.60;2.90;;;;;18.32;95934.60;;;;110587;1251;41880;-72
2022/04/09 09:11:10;;;;;;;8.40;2.60;;;;;18.24;95941.40;;;;110959;1251;42055;-72
2022/04/09 09:13:49;;;;;;;7.40;2.60;;;;;18.20;95927.20;;;;110873;1252;41416;-70
2022/04/09 09:16:26;;;;;;;5.40;2.30;;;;;18.20;95929.80;;;;110761;1249;42108;-71
2022/04/09 09:18:57;;;;;;;6.80;2.60;;;;;18.14;95937.80;;;;110903;1250;41146;-71
2022/04/09 09:21:27;;;;;;;7.20;2.40;;;;;18.20;95939.00;;;;110853;1249;42517;-71
2022/04/09 09:24:13;;;;;;;6.60;2.70;;;;;18.10;95934.40;;;;110934;1249;40734;-71
2022/04/09 09:26:44;;;;;;;6.30;2.50;;;;;18.00;95934.20;;;;110887;1252;41130;-70
2022/04/09 09:29:35;;;;;;;8.10;2.90;;;;;17.92;95932.60;;;;110963;1249;41149;-71
2022/04/09 09:32:06;;;;;;;6.40;2.50;;;;;18.00;95933.20;;;;110725;1249;41439;-71
2022/04/09 09:34:35;;;;;;;;;;;;;18.00;95931.00;;;;110987;1249;41404;-71
2022/04/09 09:37:04;;;;;;;7.40;2.40;;;;;18.00;95932.60;;;;110877;1251;41692;-71
2022/04/09 09:39:36;;;;;;;6.60;2.60;;;;;17.90;95934.40;;;;110937;1249;41130;-71
2022/04/09 09:42:05;;;;;;;6.30;2.30;;;;;17.80;95928.20;;;;110795;1250;41161;-70
2022/04/09 09:44:42;;;;;;;6.90;2.50;;;;;17.80;95928.00;;;;110774;1247;41157;-70
2022/04/09 09:47:17;;;;;;;6.80;2.50;;;;;17.70;95930.00;;;;110742;1252;41273;-70
2022/04/09 09:49:58;;;;;;;5.30;2.20;;;;;17.90;95928.60;;;;110892;1252;40867;-71
2022/04/09 09:52:32;;;;;;;8.10;2.40;;;;;17.92;95924.60;;;;110894;1250;41724;-71
2022/04/09 09:55:10;;;;;;;6.20;2.40;;;;;17.92;95926.80;;;;110882;1250;42474;-71
2022/04/09 09:57:40;;;;;;;6.90;2.50;;;;;17.96;95926.20;;;;110808;1252;41262;-70
2022/04/09 10:00:10;;;;;;;4.30;2.10;;;;;17.90;95926.40;;;;110841;1249;41646;-70
2022/04/09 10:02:40;;;;;;;8.40;2.70;;;;;17.80;95930.00;;;;110700;1252;41603;-70
2022/04/09 10:05:09;;;;;;;7.20;2.50;;;;;17.80;95931.80;;;;110723;1249;41417;-70
2022/04/09 10:07:39;;;;;;;6.60;2.80;;;;;17.70;95927.60;;;;110722;1252;41732;-71
2022/04/09 10:10:08;;;;;;;7.90;2.60;;;;;17.70;95928.60;;;;110712;1252;41944;-70
2022/04/09 10:12:39;;;;;;;5.40;2.30;;;;;17.70;95929.40;;;;110698;1252;41371;-70
2022/04/09 10:15:10;;;;;;;7.10;2.70;;;;;17.66;95926.80;;;;110666;1253;41770;-70
2022/04/09 10:17:39;;;;;;;6.20;2.50;;;;;17.70;95921.80;;;;110510;1253;42258;-70
2022/04/09 10:20:08;;;;;;;6.70;2.40;;;;;17.78;95924.60;;;;110763;1250;41623;-71
2022/04/09 10:22:45;;;;;;;8.50;2.90;;;;;17.80;95927.20;;;;110692;1252;41264;-72
2022/04/09 10:25:15;;;;;;;6.40;2.60;;;;;17.80;95924.60;;;;110654;1251;42082;-72
2022/04/09 10:27:52;;;;;;;7.10;2.60;;;;;17.90;95923.80;;;;110712;1252;41145;-71
2022/04/09 10:30:24;;;;;;;7.30;2.70;;;;;17.80;95929.20;;;;110577;1252;41353;-71
2022/04/09 10:32:59;;;;;;;6.30;2.20;;;;;17.80;95925.80;;;;110857;1251;42385;-70
2022/04/09 10:35:39;;;;;;;8.60;2.40;;;;;17.80;95932.40;;;;110713;1252;41314;-70
2022/04/09 10:38:14;;;;;;;6.10;2.50;;;;;17.80;95933.60;;;;110834;1252;41158;-70
2022/04/09 10:40:43;;;;;;;7.40;2.50;;;;;17.74;95934.60;;;;110872;1251;42604;-70
2022/04/09 10:43:22;;;;;;;8.30;2.50;;;;;17.64;95923.00;;;;110670;1252;41460;-71
2022/04/09 10:46:11;;;;;;;6.40;2.30;;;;;17.70;95923.00;;;;110744;1252;41262;-71
2022/04/09 10:48:47;;;;;;;6.70;2.50;;;;;17.80;95927.40;;;;110775;1251;42853;-71
2022/04/09 10:51:16;;;;;;;7.60;2.40;;;;;17.90;95922.80;;;;110677;1252;42385;-72
2022/04/09 10:53:52;;;;;;;6.20;2.40;;;;;18.06;95923.00;;;;110622;1252;41349;-71
2022/04/09 10:56:26;;;;;;;8.00;2.70;;;;;18.20;95924.80;;;;110627;1253;41627;-71
2022/04/09 10:59:08;;;;;;;5.40;2.00;;;;;18.32;95917.00;;;;110619;1253;41420;-71
2022/04/09 11:01:48;;;;;;;8.30;2.30;;;;;18.48;95924.20;;;;110631;1252;41144;-71
2022/04/09 11:04:34;;;;;;;6.10;2.20;;;;;18.60;95924.60;;;;110719;1252;41889;-70
2022/04/09 11:07:14;;;;;;;5.80;2.40;;;;;18.68;95928.80;;;;110657;1253;41257;-71
2022/04/09 11:09:53;;;;;;;7.50;2.40;;;;;18.74;95930.20;;;;110853;1253;41153;-71
2022/04/09 11:12:38;;;;;;;8.00;2.70;;;;;18.76;95926.00;;;;110644;1253;42862;-73
2022/04/09 11:15:09;;;;;;;10.80;2.60;;;;;18.70;95924.60;;;;110689;1252;41302;-71
2022/04/09 11:17:45;;;;;;;7.60;2.50;;;;;18.68;95924.00;;;;110748;1252;41320;-70
2022/04/09 11:20:16;;;;;;;8.10;2.30;;;;;18.60;95924.60;;;;110692;1253;41904;-70
2022/04/09 11:22:47;;;;;;;;;;;;;18.60;95924.40;;;;110729;1252;41742;-71
2022/04/09 11:25:27;;;;;;;6.80;2.40;;;;;18.60;95929.60;;;;110717;1252;42521;-70
2022/04/09 11:28:12;;;;;;;9.00;2.40;;;;;18.56;95928.80;;;;110636;1252;41178;-71
2022/04/09 11:31:00;;;;;;;5.80;2.20;;;;;18.70;95922.00;;;;110626;1252;41146;-71
2022/04/09 11:33:29;;;;;;;7.00;2.40;;;;;19.40;95911.60;;;;110608;1252;41171;-71
2022/04/09 11:36:02;;;;;;;6.30;2.40;;;;;20.34;95915.20;;;;110546;1253;41161;-71
2022/04/09 11:38:34;;;;;;;10.70;2.50;;;;;21.10;95916.60;;;;110697;1252;42154;-71
2022/04/09 11:41:18;;;;;;;8.00;3.00;;;;;21.68;95915.20;;;;110702;1252;42090;-71
2022/04/09 11:43:47;;;;;;;6.40;2.80;;;;;22.32;95906.20;;;;110725;1252;41258;-71
2022/04/09 11:46:16;;;;;;;8.20;2.90;;;;;23.02;95901.00;;;;110627;1252;41146;-71
2022/04/09 11:48:49;;;;;;;7.50;2.60;;;;;23.70;95895.80;;;;110671;1253;41264;-71
2022/04/09 11:51:19;;;;;;;6.30;2.60;;;;;24.20;95893.60;;;;110579;1254;41956;-71
2022/04/09 11:53:47;;;;;;;6.10;2.30;;;;;24.48;95883.40;;;;110598;1253;41184;-72
2022/04/09 11:56:16;;;;;;;5.60;2.30;;;;;24.70;95896.00;;;;110478;1254;41159;-71
2022/04/09 11:58:45;;;;;;;9.10;2.90;;;;;24.80;95889.60;;;;110406;1254;41465;-72
2022/04/09 12:01:14;;;;;;;6.50;1.90;;;;;24.48;95889.80;;;;110694;1253;41131;-72
2022/04/09 12:03:51;;;;;;;6.60;2.60;;;;;24.20;95894.80;;;;110710;1252;41159;-71
2022/04/09 12:06:20;;;;;;;10.30;2.60;;;;;23.86;95895.00;;;;110454;1254;41608;-72
2022/04/09 12:08:49;;;;;;;5.80;2.30;;;;;23.36;95895.80;;;;110678;1253;42051;-72
2022/04/09 12:11:20;;;;;;;5.50;2.50;;;;;22.84;95904.20;;;;110590;1252;41992;-72
2022/04/09 12:13:49;;;;;;;7.30;2.60;;;;;22.50;95905.20;;;;110696;1252;42560;-72
2022/04/09 12:16:19;;;;;;;7.20;2.70;;;;;22.22;95908.20;;;;110685;1253;41952;-73
2022/04/09 12:18:48;;;;;;;7.70;2.50;;;;;21.90;95910.60;;;;110663;1252;41271;-72
2022/04/09 12:21:22;;;;;;;8.00;2.80;;;;;21.80;95908.60;;;;110644;1252;41648;-72
2022/04/09 12:24:11;;;;;;;7.90;2.40;;;;;21.70;95908.20;;;;110685;1253;41596;-72
2022/04/09 12:26:42;;;;;;;5.30;2.00;;;;;21.70;95907.40;;;;110656;1253;41146;-72
2022/04/09 12:29:23;;;;;;;6.20;2.40;;;;;21.70;95908.80;;;;110587;1252;41125;-71
2022/04/09 12:32:13;;;;;;;6.70;2.20;;;;;21.80;95904.60;;;;110499;1252;41269;-71